createdAt,value
2022-09-27T00:03:32.108Z,0.00
2022-09-27T00:08:32.026Z,0.00
2022-09-27T00:13:31.978Z,0.00
2022-09-27T00:18:31.891Z,0.00
2022-09-27T00:23:31.834Z,0.00
2022-09-27T00:28:31.761Z,0.00
2022-09-27T00:33:31.703Z,0.00
2022-09-27T00:38:31.630Z,0.00
2022-09-27T00:43:31.571Z,0.00
2022-09-27T00:48:31.502Z,0.00
2022-09-27T00:53:31.444Z,0.00
2022-09-27T00:58:31.374Z,0.00
2022-09-27T01:03:31.304Z,0.00
2022-09-27T01:08:31.254Z,0.00
2022-09-27T01:13:31.168Z,0.00
2022-09-27T01:18:31.109Z,0.00
2022-09-27T01:23:31.038Z,0.00
2022-09-27T01:28:30.978Z,0.00
2022-09-27T01:33:30.906Z,0.00
2022-09-27T01:38:30.850Z,0.00
2022-09-27T01:43:30.789Z,0.00
2022-09-27T01:48:30.718Z,0.00
2022-09-27T01:53:30.651Z,0.00
2022-09-27T01:58:30.582Z,0.00
2022-09-27T02:03:30.522Z,0.00
2022-09-27T02:08:30.452Z,0.00
2022-09-27T02:13:30.393Z,0.00
2022-09-27T02:18:30.324Z,0.00
2022-09-27T02:23:30.252Z,0.00
2022-09-27T02:28:30.292Z,0.00
2022-09-27T02:33:30.271Z,0.00
2022-09-27T02:38:30.320Z,0.00
2022-09-27T02:43:30.289Z,0.00
2022-09-27T02:48:30.279Z,0.00
2022-09-27T02:53:30.306Z,0.00
2022-09-27T02:58:30.297Z,0.00
2022-09-27T03:03:29.759Z,0.00
2022-09-27T03:08:29.672Z,0.00
2022-09-27T03:13:29.608Z,0.00
2022-09-27T03:18:29.540Z,0.00
2022-09-27T03:23:29.475Z,0.00
2022-09-27T03:28:29.414Z,0.00
2022-09-27T03:33:29.357Z,0.00
2022-09-27T03:38:29.281Z,0.00
2022-09-27T03:43:29.224Z,0.00
2022-09-27T03:48:29.150Z,0.00
2022-09-27T03:53:29.094Z,0.00
2022-09-27T03:58:29.020Z,0.00
2022-09-27T04:03:28.966Z,0.00
2022-09-27T04:08:28.891Z,0.00
2022-09-27T04:13:28.833Z,0.00
2022-09-27T04:18:28.759Z,0.00
2022-09-27T04:23:30.057Z,0.00
2022-09-27T04:28:28.627Z,0.00
2022-09-27T04:33:28.602Z,0.00
2022-09-27T04:38:28.498Z,0.00
2022-09-27T04:43:28.438Z,0.00
2022-09-27T04:48:28.365Z,0.00
2022-09-27T04:53:28.308Z,0.00
2022-09-27T04:58:28.235Z,0.00
2022-09-27T05:03:28.176Z,0.00
2022-09-27T05:08:28.104Z,0.00
2022-09-27T05:13:28.045Z,5.62
2022-09-27T05:18:27.972Z,5.62
2022-09-27T05:23:27.914Z,11.25
2022-09-27T05:28:27.839Z,11.25
2022-09-27T05:33:27.780Z,33.75
2022-09-27T05:38:27.708Z,50.62
2022-09-27T05:43:27.651Z,39.37
2022-09-27T05:48:27.577Z,61.87
2022-09-27T05:53:27.519Z,45.00
2022-09-27T05:58:27.445Z,50.62
2022-09-27T06:03:27.387Z,90.00
2022-09-27T06:08:27.344Z,146.25
2022-09-27T06:13:27.256Z,157.50
2022-09-27T06:18:27.185Z,135.00
2022-09-27T06:23:27.124Z,196.87
2022-09-27T06:28:27.050Z,191.25
2022-09-27T06:33:26.995Z,140.62
2022-09-27T06:38:26.922Z,146.25
2022-09-27T06:43:26.865Z,146.25
2022-09-27T06:48:26.791Z,202.50
2022-09-27T06:53:26.749Z,230.62
2022-09-27T06:58:26.669Z,360.00
2022-09-27T07:03:30.728Z,225.00
2022-09-27T07:08:26.531Z,208.12
2022-09-27T07:13:26.473Z,354.37
2022-09-27T07:18:26.399Z,506.25
2022-09-27T07:23:26.342Z,410.62
2022-09-27T07:28:26.267Z,331.87
2022-09-27T07:33:26.212Z,219.37
2022-09-27T07:38:26.140Z,405.00
2022-09-27T07:43:26.077Z,247.50
2022-09-27T07:48:26.002Z,78.75
2022-09-27T07:53:25.946Z,123.75
2022-09-27T07:58:25.877Z,219.37
2022-09-27T08:03:25.815Z,219.37
2022-09-27T08:08:25.752Z,219.37
2022-09-27T08:13:25.681Z,258.75
2022-09-27T08:18:25.612Z,258.75
2022-09-27T08:23:25.557Z,230.62
2022-09-27T08:28:25.478Z,714.37
2022-09-27T08:33:29.888Z,720.00
2022-09-27T08:38:25.343Z,933.75
2022-09-27T08:43:25.287Z,528.75
2022-09-27T08:48:25.214Z,354.37
2022-09-27T08:53:25.156Z,376.87
2022-09-27T08:58:25.090Z,303.75
2022-09-27T09:03:25.026Z,320.62
2022-09-27T09:08:24.952Z,281.25
2022-09-27T09:13:24.893Z,405.00
2022-09-27T09:18:24.821Z,630.00
2022-09-27T09:23:24.763Z,708.75
2022-09-27T09:28:24.691Z,697.50
2022-09-27T09:33:24.631Z,573.75
2022-09-27T09:38:24.556Z,596.25
2022-09-27T09:43:24.498Z,641.25
2022-09-27T09:48:24.425Z,663.75
2022-09-27T09:53:24.370Z,708.75
2022-09-27T09:58:24.295Z,708.75
2022-09-27T10:03:24.239Z,765.00
2022-09-27T10:08:24.170Z,810.00
2022-09-27T10:13:24.118Z,793.12
2022-09-27T10:18:24.040Z,748.12
2022-09-27T10:23:23.983Z,669.37
2022-09-27T10:28:23.909Z,506.25
2022-09-27T10:33:23.852Z,826.87
2022-09-27T10:38:23.777Z,545.62
2022-09-27T10:43:28.762Z,540.00
2022-09-27T10:48:23.645Z,376.87
2022-09-27T10:53:23.595Z,365.62
2022-09-27T10:58:23.516Z,483.75
2022-09-27T11:03:23.459Z,438.75
2022-09-27T11:08:23.396Z,500.62
2022-09-27T11:13:23.331Z,455.62
2022-09-27T11:18:23.259Z,275.62
2022-09-27T11:23:23.205Z,427.50
2022-09-27T11:28:23.131Z,455.62
2022-09-27T11:33:23.073Z,444.37
2022-09-27T11:38:47.982Z,461.25
2022-09-27T11:43:23.975Z,562.50
2022-09-27T11:48:22.873Z,669.37
2022-09-27T11:53:22.817Z,995.62
2022-09-27T11:58:22.745Z,1260.00
2022-09-27T12:03:22.689Z,1192.50
2022-09-27T12:08:22.618Z,680.62
2022-09-27T12:13:22.582Z,607.50
2022-09-27T12:18:22.485Z,995.62
2022-09-27T12:23:22.424Z,736.87
2022-09-27T12:28:27.341Z,540.00
2022-09-27T12:33:22.379Z,624.37
2022-09-27T12:38:22.239Z,489.37
2022-09-27T12:43:22.161Z,596.25
2022-09-27T12:48:22.087Z,675.00
2022-09-27T12:53:22.027Z,720.00
2022-09-27T12:58:21.956Z,714.37
2022-09-27T13:03:26.055Z,714.37
2022-09-27T13:08:21.824Z,725.62
2022-09-27T13:13:21.762Z,646.87
2022-09-27T13:18:21.689Z,483.75
2022-09-27T13:23:21.629Z,123.75
2022-09-27T13:28:21.553Z,73.12
2022-09-27T13:33:21.493Z,90.00
2022-09-27T13:38:21.419Z,106.87
2022-09-27T13:43:21.357Z,106.87
2022-09-27T13:48:21.287Z,140.62
2022-09-27T13:53:21.439Z,326.25
2022-09-27T13:58:21.159Z,697.50
2022-09-27T14:03:21.102Z,731.25
2022-09-27T14:08:21.032Z,506.25
2022-09-27T14:13:20.976Z,382.50
2022-09-27T14:18:20.902Z,320.62
2022-09-27T14:23:20.852Z,320.62
2022-09-27T14:28:20.777Z,320.62
2022-09-27T14:33:22.749Z,315.00
2022-09-27T14:38:36.975Z,320.62
2022-09-27T14:43:21.617Z,326.25
2022-09-27T14:48:20.515Z,343.12
2022-09-27T14:53:20.458Z,360.00
2022-09-27T14:58:45.576Z,348.75
2022-09-27T15:03:21.531Z,331.87
2022-09-27T15:08:20.259Z,320.62
2022-09-27T15:13:20.210Z,309.37
2022-09-27T15:18:20.130Z,298.12
2022-09-27T15:23:20.075Z,309.37
2022-09-27T15:28:20.002Z,264.37
2022-09-27T15:33:19.947Z,247.50
2022-09-27T15:38:19.876Z,219.37
2022-09-27T15:43:19.820Z,247.50
2022-09-27T15:48:19.751Z,202.50
2022-09-27T15:53:19.690Z,157.50
2022-09-27T15:58:19.616Z,146.25
2022-09-27T16:03:19.561Z,129.37
2022-09-27T16:08:19.489Z,67.50
2022-09-27T16:13:19.431Z,39.37
2022-09-27T16:18:19.363Z,33.75
2022-09-27T16:23:19.304Z,39.37
2022-09-27T16:28:19.229Z,22.50
2022-09-27T16:33:19.170Z,28.12
2022-09-27T16:38:19.097Z,39.37
2022-09-27T16:43:19.045Z,33.75
2022-09-27T16:48:18.965Z,16.87
2022-09-27T16:53:18.907Z,11.25
2022-09-27T16:58:18.834Z,5.62
2022-09-27T17:03:18.778Z,5.62
2022-09-27T17:08:18.705Z,0.00
2022-09-27T17:13:18.649Z,0.00
2022-09-27T17:18:18.571Z,0.00
2022-09-27T17:23:18.524Z,0.00
2022-09-27T17:28:18.443Z,0.00
2022-09-27T17:33:18.384Z,0.00
2022-09-27T17:38:18.311Z,0.00
2022-09-27T17:43:18.253Z,0.00
2022-09-27T17:48:18.183Z,0.00
2022-09-27T17:53:18.122Z,0.00
2022-09-27T17:58:18.049Z,0.00
2022-09-27T18:03:17.993Z,0.00
2022-09-27T18:08:17.917Z,0.00
2022-09-27T18:13:17.860Z,0.00
2022-09-27T18:18:17.786Z,0.00
2022-09-27T18:23:17.730Z,0.00
2022-09-27T18:28:17.657Z,0.00
2022-09-27T18:33:17.600Z,0.00
2022-09-27T18:38:17.524Z,0.00
2022-09-27T18:43:17.470Z,0.00
2022-09-27T18:48:17.393Z,0.00
2022-09-27T18:53:17.337Z,0.00
2022-09-27T18:58:17.261Z,0.00
2022-09-27T19:03:17.209Z,0.00
2022-09-27T19:08:17.132Z,0.00
2022-09-27T19:13:17.074Z,0.00
2022-09-27T19:18:17.000Z,0.00
2022-09-27T19:23:16.942Z,0.00
2022-09-27T19:28:16.867Z,0.00
2022-09-27T19:33:16.810Z,0.00
2022-09-27T19:38:16.736Z,0.00
2022-09-27T19:43:16.677Z,0.00
2022-09-27T19:48:16.605Z,0.00
2022-09-27T19:53:16.553Z,0.00
2022-09-27T19:58:16.470Z,0.00
2022-09-27T20:03:16.485Z,0.00
2022-09-27T20:08:16.339Z,0.00
2022-09-27T20:13:16.280Z,0.00
2022-09-27T20:18:16.214Z,0.00
2022-09-27T20:23:16.150Z,0.00
2022-09-27T20:28:16.075Z,0.00
2022-09-27T20:33:16.016Z,0.00
2022-09-27T20:38:15.943Z,0.00
2022-09-27T20:43:16.024Z,0.00
2022-09-27T20:48:15.811Z,0.00
2022-09-27T20:53:15.751Z,0.00
2022-09-27T20:58:15.677Z,0.00
2022-09-27T21:03:19.569Z,0.00
2022-09-27T21:08:15.546Z,0.00
2022-09-27T21:13:15.487Z,0.00
2022-09-27T21:18:15.416Z,0.00
2022-09-27T21:23:15.359Z,0.00
2022-09-27T21:28:15.286Z,0.00
2022-09-27T21:33:15.229Z,0.00
2022-09-27T21:38:15.157Z,0.00
2022-09-27T21:43:15.097Z,0.00
2022-09-27T21:48:15.034Z,0.00
2022-09-27T21:53:14.969Z,0.00
2022-09-27T21:58:14.898Z,0.00
2022-09-27T22:03:14.839Z,0.00
2022-09-27T22:08:14.767Z,0.00
2022-09-27T22:13:14.708Z,0.00
2022-09-27T22:18:14.643Z,0.00
2022-09-27T22:23:14.572Z,0.00
2022-09-27T22:28:14.515Z,0.00
2022-09-27T22:33:14.443Z,0.00
2022-09-27T22:38:14.382Z,0.00
2022-09-27T22:43:14.315Z,0.00
2022-09-27T22:48:14.254Z,0.00
2022-09-27T22:53:14.180Z,0.00
2022-09-27T22:58:14.122Z,0.00
2022-09-27T23:03:14.049Z,0.00
2022-09-27T23:08:13.990Z,0.00
2022-09-27T23:13:13.920Z,0.00
2022-09-27T23:18:13.858Z,0.00
2022-09-27T23:23:13.784Z,0.00
2022-09-27T23:28:13.727Z,0.00
2022-09-27T23:33:13.654Z,0.00
2022-09-27T23:38:13.595Z,0.00
2022-09-27T23:43:13.526Z,0.00
2022-09-27T23:48:13.464Z,0.00
2022-09-27T23:53:13.389Z,0.00
2022-09-27T23:58:13.332Z,0.00
